sensor_id;sensor_type;location;lat;lon;timestamp;pressure;altitude;pressure_sealevel;temperature;humidity
10587;BME280;5341;47.606;7.576;2022-07-23T00:00:27;98736.16;;;30.37;43.13
10587;BME280;5341;47.606;7.576;2022-07-23T00:02:54;98739.25;;;30.35;42.93
10587;BME280;5341;47.606;7.576;2022-07-23T00:05:23;98750.28;;;30.35;42.86
10587;BME280;5341;47.606;7.576;2022-07-23T00:07:51;98761.63;;;30.33;42.75
10587;BME280;5341;47.606;7.576;2022-07-23T00:10:19;98767.97;;;30.34;42.54
10587;BME280;5341;47.606;7.576;2022-07-23T00:12:46;98767.97;;;30.34;42.63
10587;BME280;5341;47.606;7.576;2022-07-23T00:15:14;98785.34;;;30.34;42.44
10587;BME280;5341;47.606;7.576;2022-07-23T00:17:41;98775.94;;;30.36;42.20
10587;BME280;5341;47.606;7.576;2022-07-23T00:20:09;98777.06;;;30.34;42.24
10587;BME280;5341;47.606;7.576;2022-07-23T00:22:45;98773.16;;;30.36;42.16
10587;BME280;5341;47.606;7.576;2022-07-23T00:25:13;98777.06;;;30.34;41.88
10587;BME280;5341;47.606;7.576;2022-07-23T00:27:40;98782.56;;;30.34;42.04
10587;BME280;5341;47.606;7.576;2022-07-23T00:30:09;98769.91;;;30.33;42.00
10587;BME280;5341;47.606;7.576;2022-07-23T00:32:45;98764.38;;;30.33;42.10
10587;BME280;5341;47.606;7.576;2022-07-23T00:35:13;98753.66;;;30.32;41.83
10587;BME280;5341;47.606;7.576;2022-07-23T00:37:42;98742.63;;;30.32;41.81
10587;BME280;5341;47.606;7.576;2022-07-23T00:40:11;98746.19;;;30.32;42.04
10587;BME280;5341;47.606;7.576;2022-07-23T00:42:39;98736.63;;;30.30;41.98
10587;BME280;5341;47.606;7.576;2022-07-23T00:45:08;98740.19;;;30.30;42.08
10587;BME280;5341;47.606;7.576;2022-07-23T00:47:36;98734.97;;;30.29;41.82
10587;BME280;5341;47.606;7.576;2022-07-23T00:50:05;98739.66;;;30.28;41.79
10587;BME280;5341;47.606;7.576;2022-07-23T00:52:34;98729.75;;;30.27;41.69
10587;BME280;5341;47.606;7.576;2022-07-23T00:55:05;98736.41;;;30.26;41.76
10587;BME280;5341;47.606;7.576;2022-07-23T00:57:33;98737.53;;;30.25;41.90
10587;BME280;5341;47.606;7.576;2022-07-23T01:00:00;98729.25;;;30.25;41.69
10587;BME280;5341;47.606;7.576;2022-07-23T01:02:28;98748.88;;;30.24;41.76
10587;BME280;5341;47.606;7.576;2022-07-23T01:04:56;98746.44;;;30.22;41.71
10587;BME280;5341;47.606;7.576;2022-07-23T01:07:24;98753.59;;;30.23;41.85
10587;BME280;5341;47.606;7.576;2022-07-23T01:09:52;98751.97;;;30.22;41.84
10587;BME280;5341;47.606;7.576;2022-07-23T01:12:21;98739.28;;;30.21;41.80
10587;BME280;5341;47.606;7.576;2022-07-23T01:14:53;98710.06;;;30.20;41.78
10587;BME280;5341;47.606;7.576;2022-07-23T01:17:21;98713.16;;;30.19;41.87
10587;BME280;5341;47.606;7.576;2022-07-23T01:19:49;98706.00;;;30.18;41.93
10587;BME280;5341;47.606;7.576;2022-07-23T01:22:18;98691.41;;;30.17;42.07
10587;BME280;5341;47.606;7.576;2022-07-23T01:24:48;98682.59;;;30.15;41.96
10587;BME280;5341;47.606;7.576;2022-07-23T01:27:20;98671.88;;;30.14;42.25
10587;BME280;5341;47.606;7.576;2022-07-23T01:29:50;98674.44;;;30.10;42.75
10587;BME280;5341;47.606;7.576;2022-07-23T01:32:20;98687.25;;;30.06;42.89
10587;BME280;5341;47.606;7.576;2022-07-23T01:34:48;98693.66;;;30.01;43.33
10587;BME280;5341;47.606;7.576;2022-07-23T01:37:16;98710.00;;;29.98;43.34
10587;BME280;5341;47.606;7.576;2022-07-23T01:39:44;98725.25;;;29.95;43.11
10587;BME280;5341;47.606;7.576;2022-07-23T01:42:14;98709.28;;;29.92;43.23
10587;BME280;5341;47.606;7.576;2022-07-23T01:44:41;98689.50;;;29.90;43.13
10587;BME280;5341;47.606;7.576;2022-07-23T01:47:16;98694.19;;;29.90;42.93
10587;BME280;5341;47.606;7.576;2022-07-23T01:49:44;98686.56;;;29.87;43.09
10587;BME280;5341;47.606;7.576;2022-07-23T01:52:30;98697.91;;;29.85;43.17
10587;BME280;5341;47.606;7.576;2022-07-23T01:54:57;98706.78;;;29.82;43.26
10587;BME280;5341;47.606;7.576;2022-07-23T01:57:26;98705.44;;;29.80;43.43
10587;BME280;5341;47.606;7.576;2022-07-23T01:59:55;98711.91;;;29.75;43.36
10587;BME280;5341;47.606;7.576;2022-07-23T02:02:22;98693.22;;;29.72;43.40
10587;BME280;5341;47.606;7.576;2022-07-23T02:04:50;98699.06;;;29.70;43.37
10587;BME280;5341;47.606;7.576;2022-07-23T02:07:19;98703.22;;;29.68;43.41
10587;BME280;5341;47.606;7.576;2022-07-23T02:09:46;98713.44;;;29.67;43.38
10587;BME280;5341;47.606;7.576;2022-07-23T02:12:14;98716.50;;;29.66;43.30
10587;BME280;5341;47.606;7.576;2022-07-23T02:14:45;98710.50;;;29.64;43.33
10587;BME280;5341;47.606;7.576;2022-07-23T02:17:13;98710.81;;;29.62;43.33
10587;BME280;5341;47.606;7.576;2022-07-23T02:19:41;98722.13;;;29.61;43.26
10587;BME280;5341;47.606;7.576;2022-07-23T02:22:08;98721.31;;;29.60;43.16
10587;BME280;5341;47.606;7.576;2022-07-23T02:24:36;98712.56;;;29.58;43.27
10587;BME280;5341;47.606;7.576;2022-07-23T02:27:03;98706.22;;;29.58;43.22
10587;BME280;5341;47.606;7.576;2022-07-23T02:29:32;98681.72;;;29.56;43.22
10587;BME280;5341;47.606;7.576;2022-07-23T02:32:01;98684.78;;;29.55;43.09
10587;BME280;5341;47.606;7.576;2022-07-23T02:34:28;98686.22;;;29.52;43.13
10587;BME280;5341;47.606;7.576;2022-07-23T02:36:56;98688.47;;;29.50;43.18
10587;BME280;5341;47.606;7.576;2022-07-23T02:39:25;98698.44;;;29.46;43.23
10587;BME280;5341;47.606;7.576;2022-07-23T02:41:53;98722.22;;;29.42;43.16
10587;BME280;5341;47.606;7.576;2022-07-23T02:44:20;98779.88;;;29.38;43.34
10587;BME280;5341;47.606;7.576;2022-07-23T02:46:51;98810.81;;;29.35;43.21
10587;BME280;5341;47.606;7.576;2022-07-23T02:49:20;98795.97;;;29.31;43.11
10587;BME280;5341;47.606;7.576;2022-07-23T02:51:50;98766.28;;;29.28;43.17
10587;BME280;5341;47.606;7.576;2022-07-23T02:54:17;98764.97;;;29.26;43.30
10587;BME280;5341;47.606;7.576;2022-07-23T02:56:45;98786.00;;;29.22;43.57
10587;BME280;5341;47.606;7.576;2022-07-23T02:59:12;98771.69;;;29.19;43.85
10587;BME280;5341;47.606;7.576;2022-07-23T03:01:40;98791.28;;;29.18;43.88
10587;BME280;5341;47.606;7.576;2022-07-23T03:04:07;98787.50;;;29.14;43.85
10587;BME280;5341;47.606;7.576;2022-07-23T03:06:36;98782.59;;;29.11;44.05
10587;BME280;5341;47.606;7.576;2022-07-23T03:09:04;98768.31;;;29.09;44.03
10587;BME280;5341;47.606;7.576;2022-07-23T03:11:32;98759.53;;;29.07;44.39
10587;BME280;5341;47.606;7.576;2022-07-23T03:14:00;98775.84;;;29.03;44.28
10587;BME280;5341;47.606;7.576;2022-07-23T03:16:27;98789.09;;;29.01;44.42
10587;BME280;5341;47.606;7.576;2022-07-23T03:18:55;98805.72;;;28.96;44.20
10587;BME280;5341;47.606;7.576;2022-07-23T03:21:22;98840.78;;;28.91;44.45
10587;BME280;5341;47.606;7.576;2022-07-23T03:23:53;98874.13;;;28.89;44.30
10587;BME280;5341;47.606;7.576;2022-07-23T03:26:22;98883.50;;;28.88;44.52
10587;BME280;5341;47.606;7.576;2022-07-23T03:28:52;98839.72;;;28.86;44.37
10587;BME280;5341;47.606;7.576;2022-07-23T03:31:19;98830.63;;;28.86;44.54
10587;BME280;5341;47.606;7.576;2022-07-23T03:33:46;98812.78;;;28.83;44.74
10587;BME280;5341;47.606;7.576;2022-07-23T03:36:14;98795.53;;;28.78;44.72
10587;BME280;5341;47.606;7.576;2022-07-23T03:38:44;98791.44;;;28.75;44.83
10587;BME280;5341;47.606;7.576;2022-07-23T03:41:14;98773.06;;;28.71;45.11
10587;BME280;5341;47.606;7.576;2022-07-23T03:43:41;98747.28;;;28.67;45.34
10587;BME280;5341;47.606;7.576;2022-07-23T03:46:11;98743.19;;;28.64;45.48
10587;BME280;5341;47.606;7.576;2022-07-23T03:48:38;98745.75;;;28.60;45.53
10587;BME280;5341;47.606;7.576;2022-07-23T03:51:06;98746.41;;;28.52;45.84
10587;BME280;5341;47.606;7.576;2022-07-23T03:53:33;98761.59;;;28.50;45.71
10587;BME280;5341;47.606;7.576;2022-07-23T03:56:01;98761.91;;;28.48;45.66
10587;BME280;5341;47.606;7.576;2022-07-23T03:58:31;98776.78;;;28.47;45.77
10587;BME280;5341;47.606;7.576;2022-07-23T04:00:58;98785.31;;;28.46;45.70
10587;BME280;5341;47.606;7.576;2022-07-23T04:03:26;98787.53;;;28.44;45.32
10587;BME280;5341;47.606;7.576;2022-07-23T04:05:53;98799.66;;;28.43;45.36
10587;BME280;5341;47.606;7.576;2022-07-23T04:08:22;98814.53;;;28.42;45.45
10587;BME280;5341;47.606;7.576;2022-07-23T04:10:51;98823.91;;;28.41;45.49
10587;BME280;5341;47.606;7.576;2022-07-23T04:13:21;98836.84;;;28.40;45.36
10587;BME280;5341;47.606;7.576;2022-07-23T04:15:51;98845.09;;;28.40;45.63
10587;BME280;5341;47.606;7.576;2022-07-23T04:18:19;98839.09;;;28.38;45.28
10587;BME280;5341;47.606;7.576;2022-07-23T04:20:57;98830.00;;;28.38;45.52
10587;BME280;5341;47.606;7.576;2022-07-23T04:23:25;98829.50;;;28.36;45.80
10587;BME280;5341;47.606;7.576;2022-07-23T04:25:53;98831.44;;;28.35;45.65
10587;BME280;5341;47.606;7.576;2022-07-23T04:28:21;98840.75;;;28.34;45.65
10587;BME280;5341;47.606;7.576;2022-07-23T04:30:50;98830.06;;;28.33;45.62
10587;BME280;5341;47.606;7.576;2022-07-23T04:33:20;98842.19;;;28.31;45.79
10587;BME280;5341;47.606;7.576;2022-07-23T04:35:50;98846.06;;;28.30;45.69
10587;BME280;5341;47.606;7.576;2022-07-23T04:38:20;98830.38;;;28.31;45.79
10587;BME280;5341;47.606;7.576;2022-07-23T04:40:50;98841.38;;;28.31;45.63
10587;BME280;5341;47.606;7.576;2022-07-23T04:43:18;98845.25;;;28.30;45.38
10587;BME280;5341;47.606;7.576;2022-07-23T04:45:50;98849.91;;;28.29;45.54
10587;BME280;5341;47.606;7.576;2022-07-23T04:48:18;98862.03;;;28.28;45.56
10587;BME280;5341;47.606;7.576;2022-07-23T04:50:48;98859.28;;;28.28;45.49
10587;BME280;5341;47.606;7.576;2022-07-23T04:53:22;98864.50;;;28.30;45.53
10587;BME280;5341;47.606;7.576;2022-07-23T04:55:52;98863.69;;;28.29;45.64
10587;BME280;5341;47.606;7.576;2022-07-23T04:58:21;98864.78;;;28.28;45.54
10587;BME280;5341;47.606;7.576;2022-07-23T05:00:50;98864.78;;;28.28;45.50
10587;BME280;5341;47.606;7.576;2022-07-23T05:03:17;98866.44;;;28.29;45.37
10587;BME280;5341;47.606;7.576;2022-07-23T05:05:46;98850.22;;;28.28;45.87
10587;BME280;5341;47.606;7.576;2022-07-23T05:08:16;98856.25;;;28.30;45.66
10587;BME280;5341;47.606;7.576;2022-07-23T05:10:49;98851.56;;;28.30;45.85
10587;BME280;5341;47.606;7.576;2022-07-23T05:13:18;98857.88;;;28.31;45.79
10587;BME280;5341;47.606;7.576;2022-07-23T05:15:45;98865.00;;;28.32;45.84
10587;BME280;5341;47.606;7.576;2022-07-23T05:18:14;98865.00;;;28.32;45.83
10587;BME280;5341;47.606;7.576;2022-07-23T05:20:43;98866.63;;;28.33;45.68
10587;BME280;5341;47.606;7.576;2022-07-23T05:23:14;98871.03;;;28.34;45.78
10587;BME280;5341;47.606;7.576;2022-07-23T05:25:41;98873.78;;;28.34;45.79
10587;BME280;5341;47.606;7.576;2022-07-23T05:28:09;98877.34;;;28.35;45.79
10587;BME280;5341;47.606;7.576;2022-07-23T05:30:37;98873.50;;;28.36;45.72
10587;BME280;5341;47.606;7.576;2022-07-23T05:33:08;98875.97;;;28.37;45.72
10587;BME280;5341;47.606;7.576;2022-07-23T05:35:37;98895.22;;;28.37;45.99
10587;BME280;5341;47.606;7.576;2022-07-23T05:38:21;98899.59;;;28.38;45.82
10587;BME280;5341;47.606;7.576;2022-07-23T05:40:49;98887.47;;;28.39;45.72
10587;BME280;5341;47.606;7.576;2022-07-23T05:43:18;98885.53;;;28.40;45.93
10587;BME280;5341;47.606;7.576;2022-07-23T05:45:45;98894.91;;;28.39;46.12
10587;BME280;5341;47.606;7.576;2022-07-23T05:48:14;98898.50;;;28.39;45.89
10587;BME280;5341;47.606;7.576;2022-07-23T05:50:55;98884.72;;;28.39;45.91
10587;BME280;5341;47.606;7.576;2022-07-23T05:53:31;98897.38;;;28.40;46.20
10587;BME280;5341;47.606;7.576;2022-07-23T05:56:19;98882.78;;;28.40;45.97
10587;BME280;5341;47.606;7.576;2022-07-23T05:58:47;98884.72;;;28.39;46.20
10587;BME280;5341;47.606;7.576;2022-07-23T06:01:16;98890.53;;;28.38;46.37
10587;BME280;5341;47.606;7.576;2022-07-23T06:03:55;98887.78;;;28.38;46.11
10587;BME280;5341;47.606;7.576;2022-07-23T06:06:29;98890.53;;;28.38;46.33
10587;BME280;5341;47.606;7.576;2022-07-23T06:08:57;98896.03;;;28.38;46.18
10587;BME280;5341;47.606;7.576;2022-07-23T06:11:25;98892.47;;;28.37;46.52
10587;BME280;5341;47.606;7.576;2022-07-23T06:13:52;98900.19;;;28.35;46.79
10587;BME280;5341;47.606;7.576;2022-07-23T06:16:24;98906.78;;;28.34;46.47
10587;BME280;5341;47.606;7.576;2022-07-23T06:18:52;98911.47;;;28.34;46.46
10587;BME280;5341;47.606;7.576;2022-07-23T06:21:19;98917.53;;;28.36;46.60
10587;BME280;5341;47.606;7.576;2022-07-23T06:23:48;98915.59;;;28.36;46.49
10587;BME280;5341;47.606;7.576;2022-07-23T06:26:16;98930.97;;;28.37;46.44
10587;BME280;5341;47.606;7.576;2022-07-23T06:28:44;98921.59;;;28.38;46.33
10587;BME280;5341;47.606;7.576;2022-07-23T06:31:12;98924.88;;;28.40;46.32
10587;BME280;5341;47.606;7.576;2022-07-23T06:33:40;98926.50;;;28.41;46.60
10587;BME280;5341;47.606;7.576;2022-07-23T06:36:07;98919.59;;;28.44;46.51
10587;BME280;5341;47.606;7.576;2022-07-23T06:38:35;98923.97;;;28.45;46.49
10587;BME280;5341;47.606;7.576;2022-07-23T06:41:04;98933.59;;;28.47;46.49
10587;BME280;5341;47.606;7.576;2022-07-23T06:43:31;98932.50;;;28.48;46.73
10587;BME280;5341;47.606;7.576;2022-07-23T06:45:59;98943.19;;;28.50;46.97
10587;BME280;5341;47.606;7.576;2022-07-23T06:48:27;98937.69;;;28.50;46.59
10587;BME280;5341;47.606;7.576;2022-07-23T06:50:54;98927.81;;;28.49;46.69
10587;BME280;5341;47.606;7.576;2022-07-23T06:53:24;98939.09;;;28.47;46.71
10587;BME280;5341;47.606;7.576;2022-07-23T06:55:51;98937.44;;;28.46;46.89
10587;BME280;5341;47.606;7.576;2022-07-23T06:58:20;98948.44;;;28.46;46.99
10587;BME280;5341;47.606;7.576;2022-07-23T07:00:47;98951.50;;;28.45;47.04
10587;BME280;5341;47.606;7.576;2022-07-23T07:03:17;98955.06;;;28.45;46.74
10587;BME280;5341;47.606;7.576;2022-07-23T07:05:44;98952.31;;;28.45;46.71
10587;BME280;5341;47.606;7.576;2022-07-23T07:08:12;98950.38;;;28.46;46.69
10587;BME280;5341;47.606;7.576;2022-07-23T07:10:39;98943.75;;;28.47;47.06
10587;BME280;5341;47.606;7.576;2022-07-23T07:13:07;98931.66;;;28.48;46.95
10587;BME280;5341;47.606;7.576;2022-07-23T07:15:36;98930.56;;;28.49;47.18
10587;BME280;5341;47.606;7.576;2022-07-23T07:18:04;98941.25;;;28.50;47.44
10587;BME280;5341;47.606;7.576;2022-07-23T07:20:31;98942.91;;;28.51;47.35
10587;BME280;5341;47.606;7.576;2022-07-23T07:22:59;98944.53;;;28.52;47.27
10587;BME280;5341;47.606;7.576;2022-07-23T07:25:29;98946.97;;;28.54;47.50
10587;BME280;5341;47.606;7.576;2022-07-23T07:27:57;98956.88;;;28.55;47.15
10587;BME280;5341;47.606;7.576;2022-07-23T07:30:25;98957.09;;;28.58;47.64
10587;BME280;5341;47.606;7.576;2022-07-23T07:32:54;98964.19;;;28.65;47.59
10587;BME280;5341;47.606;7.576;2022-07-23T07:35:23;98965.22;;;28.69;47.86
10587;BME280;5341;47.606;7.576;2022-07-23T07:37:51;98977.28;;;28.73;47.58
10587;BME280;5341;47.606;7.576;2022-07-23T07:40:19;98978.94;;;28.74;47.46
10587;BME280;5341;47.606;7.576;2022-07-23T07:42:48;98968.44;;;28.76;47.69
10587;BME280;5341;47.606;7.576;2022-07-23T07:45:20;98962.94;;;28.76;47.67
10587;BME280;5341;47.606;7.576;2022-07-23T07:47:51;98953.25;;;28.78;47.65
10587;BME280;5341;47.606;7.576;2022-07-23T07:50:21;98953.78;;;28.80;47.39
10587;BME280;5341;47.606;7.576;2022-07-23T07:52:49;98955.09;;;28.83;47.53
10587;BME280;5341;47.606;7.576;2022-07-23T07:55:18;98951.53;;;28.82;47.64
10587;BME280;5341;47.606;7.576;2022-07-23T07:57:46;98952.06;;;28.84;47.71
10587;BME280;5341;47.606;7.576;2022-07-23T08:00:14;98961.66;;;28.87;47.85
10587;BME280;5341;47.606;7.576;2022-07-23T08:02:43;98968.53;;;28.89;47.95
10587;BME280;5341;47.606;7.576;2022-07-23T08:05:14;98972.31;;;28.94;47.80
10587;BME280;5341;47.606;7.576;2022-07-23T08:07:43;98966.25;;;28.97;47.76
10587;BME280;5341;47.606;7.576;2022-07-23T08:10:10;98966.47;;;29.00;47.73
10587;BME280;5341;47.606;7.576;2022-07-23T08:12:39;98969.13;;;29.05;47.55
10587;BME280;5341;47.606;7.576;2022-07-23T08:15:08;98959.16;;;29.09;47.64
10587;BME280;5341;47.606;7.576;2022-07-23T08:17:36;98973.66;;;29.15;47.60
10587;BME280;5341;47.606;7.576;2022-07-23T08:20:05;98960.41;;;29.17;47.37
10587;BME280;5341;47.606;7.576;2022-07-23T08:22:45;98953.22;;;29.21;47.84
10587;BME280;5341;47.606;7.576;2022-07-23T08:25:13;98960.25;;;29.27;47.47
10587;BME280;5341;47.606;7.576;2022-07-23T08:27:41;98964.88;;;29.32;47.67
10587;BME280;5341;47.606;7.576;2022-07-23T08:30:09;98968.34;;;29.37;47.44
10587;BME280;5341;47.606;7.576;2022-07-23T08:32:54;98972.97;;;29.42;47.40
10587;BME280;5341;47.606;7.576;2022-07-23T08:35:24;98966.06;;;29.44;47.58
10587;BME280;5341;47.606;7.576;2022-07-23T08:37:53;98972.06;;;29.46;47.69
10587;BME280;5341;47.606;7.576;2022-07-23T08:40:21;98975.38;;;29.49;47.44
10587;BME280;5341;47.606;7.576;2022-07-23T08:42:50;98976.69;;;29.51;47.23
10587;BME280;5341;47.606;7.576;2022-07-23T08:45:19;98977.22;;;29.53;47.10
10587;BME280;5341;47.606;7.576;2022-07-23T08:47:51;98979.38;;;29.56;47.04
10587;BME280;5341;47.606;7.576;2022-07-23T08:50:19;98981.84;;;29.58;46.92
10587;BME280;5341;47.606;7.576;2022-07-23T08:52:48;98983.69;;;29.62;47.01
10587;BME280;5341;47.606;7.576;2022-07-23T08:55:18;98974.78;;;29.65;46.91
10587;BME280;5341;47.606;7.576;2022-07-23T08:57:48;98976.38;;;29.71;46.88
10587;BME280;5341;47.606;7.576;2022-07-23T09:00:16;98980.13;;;29.75;46.64
10587;BME280;5341;47.606;7.576;2022-07-23T09:02:45;98983.34;;;29.83;47.34
10587;BME280;5341;47.606;7.576;2022-07-23T09:05:14;98979.34;;;29.89;46.99
10587;BME280;5341;47.606;7.576;2022-07-23T09:08:07;98982.53;;;29.96;47.30
10587;BME280;5341;47.606;7.576;2022-07-23T09:10:54;98979.38;;;30.02;47.34
10587;BME280;5341;47.606;7.576;2022-07-23T09:13:33;98973.50;;;30.09;47.34
10587;BME280;5341;47.606;7.576;2022-07-23T09:16:03;98985.03;;;30.11;47.12
10587;BME280;5341;47.606;7.576;2022-07-23T09:18:34;98973.69;;;30.13;46.74
10587;BME280;5341;47.606;7.576;2022-07-23T09:21:08;98973.28;;;30.19;47.14
10587;BME280;5341;47.606;7.576;2022-07-23T09:23:41;98971.75;;;30.27;46.71
10587;BME280;5341;47.606;7.576;2022-07-23T09:26:21;98962.63;;;30.40;46.50
10587;BME280;5341;47.606;7.576;2022-07-23T09:28:55;98959.66;;;30.50;46.34
10587;BME280;5341;47.606;7.576;2022-07-23T09:31:24;98966.03;;;30.65;46.41
10587;BME280;5341;47.606;7.576;2022-07-23T09:34:06;98975.44;;;30.77;46.02
10587;BME280;5341;47.606;7.576;2022-07-23T09:36:34;98977.13;;;30.87;45.62
10587;BME280;5341;47.606;7.576;2022-07-23T09:39:01;98966.78;;;30.92;45.86
10587;BME280;5341;47.606;7.576;2022-07-23T09:41:36;98976.91;;;30.97;45.43
10587;BME280;5341;47.606;7.576;2022-07-23T09:44:10;98977.41;;;30.99;45.46
10587;BME280;5341;47.606;7.576;2022-07-23T09:46:39;98979.44;;;31.07;45.42
10587;BME280;5341;47.606;7.576;2022-07-23T09:49:16;98984.22;;;31.15;44.98
10587;BME280;5341;47.606;7.576;2022-07-23T09:51:46;98979.19;;;31.17;45.20
10587;BME280;5341;47.606;7.576;2022-07-23T09:54:28;98983.31;;;31.20;45.36
10587;BME280;5341;47.606;7.576;2022-07-23T09:57:00;98994.13;;;31.30;45.16
10587;BME280;5341;47.606;7.576;2022-07-23T09:59:29;98974.56;;;31.49;45.15
10587;BME280;5341;47.606;7.576;2022-07-23T10:01:59;98985.38;;;31.59;45.29
10587;BME280;5341;47.606;7.576;2022-07-23T10:04:32;98993.88;;;31.63;44.89
10587;BME280;5341;47.606;7.576;2022-07-23T10:07:17;98999.59;;;31.66;44.45
10587;BME280;5341;47.606;7.576;2022-07-23T10:09:59;98988.53;;;31.66;44.15
10587;BME280;5341;47.606;7.576;2022-07-23T10:12:38;98995.31;;;31.60;44.10
10587;BME280;5341;47.606;7.576;2022-07-23T10:15:25;98997.56;;;31.58;44.41
10587;BME280;5341;47.606;7.576;2022-07-23T10:17:54;98995.19;;;31.65;45.03
10587;BME280;5341;47.606;7.576;2022-07-23T10:20:23;99005.22;;;31.75;44.24
10587;BME280;5341;47.606;7.576;2022-07-23T10:23:10;99000.84;;;31.83;43.92
10587;BME280;5341;47.606;7.576;2022-07-23T10:25:45;99004.94;;;31.85;44.10
10587;BME280;5341;47.606;7.576;2022-07-23T10:28:28;98999.47;;;31.94;44.26
10587;BME280;5341;47.606;7.576;2022-07-23T10:31:05;98991.53;;;32.01;44.11
10587;BME280;5341;47.606;7.576;2022-07-23T10:33:52;99004.22;;;32.02;43.95
10587;BME280;5341;47.606;7.576;2022-07-23T10:36:28;98995.59;;;32.03;43.44
10587;BME280;5341;47.606;7.576;2022-07-23T10:39:04;98999.69;;;32.06;43.67
10587;BME280;5341;47.606;7.576;2022-07-23T10:41:33;99001.84;;;32.18;44.25
10587;BME280;5341;47.606;7.576;2022-07-23T10:44:09;99004.09;;;32.47;43.77
10587;BME280;5341;47.606;7.576;2022-07-23T10:46:54;99001.38;;;32.55;43.19
10587;BME280;5341;47.606;7.576;2022-07-23T10:49:27;98999.56;;;32.51;42.93
10587;BME280;5341;47.606;7.576;2022-07-23T10:52:21;99002.06;;;32.61;42.79
10587;BME280;5341;47.606;7.576;2022-07-23T10:54:50;98993.75;;;32.70;42.79
10587;BME280;5341;47.606;7.576;2022-07-23T10:57:19;98989.84;;;32.79;42.71
10587;BME280;5341;47.606;7.576;2022-07-23T11:00:19;98988.13;;;33.01;43.31
10587;BME280;5341;47.606;7.576;2022-07-23T11:02:50;98997.59;;;33.08;42.55
10587;BME280;5341;47.606;7.576;2022-07-23T11:05:19;98996.13;;;33.11;42.20
10587;BME280;5341;47.606;7.576;2022-07-23T11:08:12;99003.31;;;33.20;42.57
10587;BME280;5341;47.606;7.576;2022-07-23T11:10:44;98989.59;;;33.24;42.38
10587;BME280;5341;47.606;7.576;2022-07-23T11:13:36;99000.22;;;33.39;41.93
10587;BME280;5341;47.606;7.576;2022-07-23T11:16:08;99005.94;;;33.51;42.26
10587;BME280;5341;47.606;7.576;2022-07-23T11:19:07;98998.28;;;33.57;42.20
10587;BME280;5341;47.606;7.576;2022-07-23T11:21:45;98994.00;;;33.60;41.86
10587;BME280;5341;47.606;7.576;2022-07-23T11:24:16;98991.25;;;33.60;41.54
10587;BME280;5341;47.606;7.576;2022-07-23T11:26:52;98990.75;;;33.58;41.24
10587;BME280;5341;47.606;7.576;2022-07-23T11:29:53;98987.66;;;33.59;41.28
10587;BME280;5341;47.606;7.576;2022-07-23T11:32:42;98983.34;;;33.79;41.48
10587;BME280;5341;47.606;7.576;2022-07-23T11:35:21;98984.84;;;33.94;41.45
10587;BME280;5341;47.606;7.576;2022-07-23T11:37:49;98987.56;;;34.02;40.97
10587;BME280;5341;47.606;7.576;2022-07-23T11:40:20;98979.75;;;34.04;40.87
10587;BME280;5341;47.606;7.576;2022-07-23T11:42:56;98980.66;;;34.17;40.59
10587;BME280;5341;47.606;7.576;2022-07-23T11:45:30;98971.31;;;34.30;40.33
10587;BME280;5341;47.606;7.576;2022-07-23T11:48:00;98981.72;;;34.42;40.01
10587;BME280;5341;47.606;7.576;2022-07-23T11:50:28;98971.66;;;34.58;39.24
10587;BME280;5341;47.606;7.576;2022-07-23T11:52:55;98975.75;;;34.82;38.28
10587;BME280;5341;47.606;7.576;2022-07-23T11:55:23;98975.00;;;35.02;38.40
10587;BME280;5341;47.606;7.576;2022-07-23T11:57:52;98968.69;;;35.14;38.41
10587;BME280;5341;47.606;7.576;2022-07-23T12:00:22;98974.78;;;35.28;37.63
10587;BME280;5341;47.606;7.576;2022-07-23T12:02:51;98965.59;;;35.48;37.02
10587;BME280;5341;47.606;7.576;2022-07-23T12:05:22;98973.81;;;35.78;36.95
10587;BME280;5341;47.606;7.576;2022-07-23T12:07:51;98972.97;;;35.98;36.33
10587;BME280;5341;47.606;7.576;2022-07-23T12:10:24;98970.44;;;36.18;36.41
10587;BME280;5341;47.606;7.576;2022-07-23T12:12:53;98971.72;;;36.20;36.32
10587;BME280;5341;47.606;7.576;2022-07-23T12:15:23;98969.06;;;36.24;36.37
10587;BME280;5341;47.606;7.576;2022-07-23T12:17:52;98966.31;;;36.36;34.84
10587;BME280;5341;47.606;7.576;2022-07-23T12:20:23;98962.34;;;36.49;34.99
10587;BME280;5341;47.606;7.576;2022-07-23T12:22:53;98964.91;;;36.42;34.28
10587;BME280;5341;47.606;7.576;2022-07-23T12:25:21;98960.59;;;36.45;34.23
10587;BME280;5341;47.606;7.576;2022-07-23T12:28:00;98960.22;;;36.58;34.14
10587;BME280;5341;47.606;7.576;2022-07-23T12:30:30;98952.59;;;36.55;34.34
10587;BME280;5341;47.606;7.576;2022-07-23T12:32:58;98950.25;;;36.45;34.31
10587;BME280;5341;47.606;7.576;2022-07-23T12:35:33;98950.41;;;36.36;34.73
10587;BME280;5341;47.606;7.576;2022-07-23T12:38:03;98946.88;;;36.27;35.09
10587;BME280;5341;47.606;7.576;2022-07-23T12:40:33;98947.97;;;36.35;35.09
10587;BME280;5341;47.606;7.576;2022-07-23T12:43:03;98948.88;;;36.39;35.28
10587;BME280;5341;47.606;7.576;2022-07-23T12:45:43;98947.59;;;36.61;34.25
10587;BME280;5341;47.606;7.576;2022-07-23T12:48:17;98950.75;;;36.59;34.62
10587;BME280;5341;47.606;7.576;2022-07-23T12:50:50;98950.03;;;36.62;35.13
10587;BME280;5341;47.606;7.576;2022-07-23T12:53:19;98951.66;;;36.63;34.46
10587;BME280;5341;47.606;7.576;2022-07-23T12:55:48;98950.75;;;36.59;35.18
10587;BME280;5341;47.606;7.576;2022-07-23T12:58:18;98947.47;;;36.57;35.58
10587;BME280;5341;47.606;7.576;2022-07-23T13:00:57;98944.66;;;36.69;33.38
10587;BME280;5341;47.606;7.576;2022-07-23T13:03:26;98944.31;;;36.95;32.49
10587;BME280;5341;47.606;7.576;2022-07-23T13:05:56;98939.25;;;37.13;32.15
10587;BME280;5341;47.606;7.576;2022-07-23T13:08:25;98943.09;;;37.09;32.30
10587;BME280;5341;47.606;7.576;2022-07-23T13:10:54;98945.25;;;36.87;31.65
10587;BME280;5341;47.606;7.576;2022-07-23T13:13:23;98939.22;;;36.73;32.33
10587;BME280;5341;47.606;7.576;2022-07-23T13:15:52;98945.16;;;36.72;33.91
10587;BME280;5341;47.606;7.576;2022-07-23T13:18:21;98938.28;;;36.81;33.47
10587;BME280;5341;47.606;7.576;2022-07-23T13:20:48;98938.38;;;36.97;32.78
10587;BME280;5341;47.606;7.576;2022-07-23T13:23:18;98935.72;;;37.29;32.88
10587;BME280;5341;47.606;7.576;2022-07-23T13:25:46;98942.09;;;37.57;31.54
10587;BME280;5341;47.606;7.576;2022-07-23T13:28:15;98941.97;;;37.81;31.10